Time;durP1;ratioP1;P1;durP2;ratioP2;P2;SDS_P1;SDS_P2;PMS_P1;PMS_P2;Temp;Humidity;BMP_temperature;BMP_pressure;BME280_temperature;BME280_humidity;BME280_pressure;Samples;Min_cycle;Max_cycle;Signal;HPM_P1;HPM_P2
2023/12/05 00:00:45;;;;;;;4.97;3.08;;;;;;;;;;5059701;28;40710;-68
2023/12/05 00:03:13;;;;;;;5.57;2.90;;;;;;;;;;5062467;28;43080;-71
2023/12/05 00:05:43;;;;;;;2.97;2.60;;;;;;;;;;5062287;28;39931;-72
2023/12/05 00:08:11;;;;;;;3.33;3.03;;;;;;;;;;5064783;28;41273;-70
2023/12/05 00:10:39;;;;;;;4.53;3.55;;;;;;;;;;5060256;28;43927;-70
2023/12/05 00:13:08;;;;;;;5.18;3.10;;;;;;;;;;5060467;28;40006;-69
2023/12/05 00:15:36;;;;;;;4.20;3.45;;;;;;;;;;5068451;28;43069;-69
2023/12/05 00:18:04;;;;;;;5.88;2.97;;;;;;;;;;5058746;28;42012;-70
2023/12/05 00:20:32;;;;;;;4.05;3.65;;;;;;;;;;5056424;28;39988;-70
2023/12/05 00:23:02;;;;;;;4.18;3.33;;;;;;;;;;5056204;28;41787;-70
2023/12/05 00:25:30;;;;;;;3.67;3.35;;;;;;;;;;5056921;28;40293;-69
2023/12/05 00:27:58;;;;;;;3.13;2.83;;;;;;;;;;5058326;28;41698;-69
2023/12/05 00:30:26;;;;;;;4.25;3.70;;;;;;;;;;5050551;28;40661;-72
2023/12/05 00:32:54;;;;;;;3.75;3.17;;;;;;;;;;5054880;28;40779;-70
2023/12/05 00:35:22;;;;;;;4.18;3.75;;;;;;;;;;5055940;28;41699;-70
2023/12/05 00:37:49;;;;;;;4.05;2.92;;;;;;;;;;5055401;28;42071;-71
2023/12/05 00:40:19;;;;;;;3.40;3.10;;;;;;;;;;5059567;28;40181;-71
2023/12/05 00:42:47;;;;;;;2.63;2.42;;;;;;;;;;5063467;28;41332;-71
2023/12/05 00:45:15;;;;;;;4.13;3.60;;;;;;;;;;5060839;28;40403;-72
2023/12/05 00:47:43;;;;;;;3.22;2.70;;;;;;;;;;5066288;28;41794;-72
2023/12/05 00:50:11;;;;;;;3.03;2.60;;;;;;;;;;5065232;28;42517;-72
2023/12/05 00:52:39;;;;;;;3.00;2.40;;;;;;;;;;5058942;28;41320;-71
2023/12/05 00:55:07;;;;;;;4.30;2.78;;;;;;;;;;5061200;28;41394;-71
2023/12/05 00:57:36;;;;;;;3.80;2.92;;;;;;;;;;5066114;28;41726;-71
2023/12/05 01:00:05;;;;;;;3.55;3.20;;;;;;;;;;5061514;28;39786;-70
2023/12/05 01:02:33;;;;;;;5.15;3.10;;;;;;;;;;5061923;28;39235;-72
2023/12/05 01:05:02;;;;;;;5.30;3.60;;;;;;;;;;5058585;28;42024;-72
2023/12/05 01:07:30;;;;;;;4.20;2.80;;;;;;;;;;5070398;28;40708;-72
2023/12/05 01:09:58;;;;;;;5.43;3.10;;;;;;;;;;5045254;28;40371;-73
2023/12/05 01:12:26;;;;;;;3.45;3.00;;;;;;;;;;5063140;28;39856;-73
2023/12/05 01:15:00;;;;;;;3.88;3.20;;;;;;;;;;5061506;28;41359;-73
2023/12/05 01:17:29;;;;;;;3.80;3.13;;;;;;;;;;5064235;28;41886;-73
2023/12/05 01:19:57;;;;;;;3.40;3.00;;;;;;;;;;5060118;28;40404;-73
2023/12/05 01:22:25;;;;;;;3.03;2.72;;;;;;;;;;5057899;28;42684;-73
2023/12/05 01:24:56;;;;;;;5.25;3.10;;;;;;;;;;5057785;28;43700;-73
2023/12/05 01:27:24;;;;;;;3.65;3.25;;;;;;;;;;5059360;28;38726;-73
2023/12/05 01:29:52;;;;;;;3.25;2.95;;;;;;;;;;5050506;28;42090;-73
2023/12/05 01:32:21;;;;;;;3.65;3.35;;;;;;;;;;5056151;28;41093;-73
2023/12/05 01:34:49;;;;;;;3.15;2.85;;;;;;;;;;5060255;28;41151;-73
2023/12/05 01:37:17;;;;;;;5.10;3.78;;;;;;;;;;5054298;28;43298;-73
2023/12/05 01:39:45;;;;;;;6.75;2.95;;;;;;;;;;5056007;28;40418;-73
2023/12/05 01:42:13;;;;;;;3.63;3.00;;;;;;;;;;5052758;28;41205;-73
2023/12/05 01:44:41;;;;;;;3.40;3.05;;;;;;;;;;5057327;28;42052;-73
2023/12/05 01:47:09;;;;;;;5.13;3.70;;;;;;;;;;5056727;28;39838;-73
2023/12/05 01:49:38;;;;;;;5.43;3.17;;;;;;;;;;5059173;28;41254;-73
2023/12/05 01:52:06;;;;;;;3.15;2.85;;;;;;;;;;5057091;28;40969;-73
2023/12/05 01:54:34;;;;;;;3.45;3.03;;;;;;;;;;5061040;28;40645;-73
2023/12/05 01:57:02;;;;;;;4.20;3.63;;;;;;;;;;5060368;28;43054;-73
2023/12/05 01:59:30;;;;;;;3.33;3.03;;;;;;;;;;5058689;28;39800;-73
2023/12/05 02:01:58;;;;;;;3.78;3.20;;;;;;;;;;5054558;28;41846;-73
2023/12/05 02:04:26;;;;;;;5.57;3.40;;;;;;;;;;5063293;28;43127;-73
2023/12/05 02:06:55;;;;;;;4.05;3.38;;;;;;;;;;5057760;28;42306;-73
2023/12/05 02:09:24;;;;;;;4.18;3.30;;;;;;;;;;5055472;28;41072;-73
2023/12/05 02:11:52;;;;;;;4.25;3.85;;;;;;;;;;5032536;28;41793;-73
2023/12/05 02:14:20;;;;;;;4.15;3.42;;;;;;;;;;5062564;28;41542;-74
2023/12/05 02:16:50;;;;;;;3.42;3.05;;;;;;;;;;5058864;28;41817;-73
2023/12/05 02:19:39;;;;;;;4.70;3.90;;;;;;;;;;5042705;28;38343;-73
2023/12/05 02:22:10;;;;;;;4.75;4.22;;;;;;;;;;5031797;28;41437;-73
2023/12/05 02:24:39;;;;;;;3.45;2.78;;;;;;;;;;5058653;28;41846;-73
2023/12/05 02:27:10;;;;;;;5.72;4.63;;;;;;;;;;5055316;28;40134;-73
2023/12/05 02:29:46;;;;;;;4.03;3.25;;;;;;;;;;5051299;28;42336;-74
2023/12/05 02:32:14;;;;;;;3.40;3.10;;;;;;;;;;5058851;28;42031;-73
2023/12/05 02:34:42;;;;;;;3.15;2.83;;;;;;;;;;5053704;28;40000;-73
2023/12/05 02:37:14;;;;;;;4.30;3.83;;;;;;;;;;5053364;28;41828;-73
2023/12/05 02:39:42;;;;;;;3.22;2.92;;;;;;;;;;5061683;28;41410;-73
2023/12/05 02:42:11;;;;;;;3.55;3.25;;;;;;;;;;5061130;28;41420;-73
2023/12/05 02:44:40;;;;;;;3.70;3.20;;;;;;;;;;5048238;28;42928;-73
2023/12/05 02:47:10;;;;;;;4.78;3.10;;;;;;;;;;5044894;28;39889;-73
2023/12/05 02:49:38;;;;;;;3.05;2.75;;;;;;;;;;5050586;28;41494;-73
2023/12/05 02:52:06;;;;;;;4.60;3.47;;;;;;;;;;5052806;28;43102;-73
2023/12/05 02:54:34;;;;;;;3.75;3.35;;;;;;;;;;5050645;28;40320;-73
2023/12/05 02:57:02;;;;;;;3.83;3.40;;;;;;;;;;5053138;28;41771;-73
2023/12/05 02:59:30;;;;;;;3.67;3.35;;;;;;;;;;5052130;28;41003;-73
2023/12/05 03:01:57;;;;;;;3.30;3.00;;;;;;;;;;5059256;28;42017;-73
2023/12/05 03:04:27;;;;;;;3.83;3.08;;;;;;;;;;5061230;28;41147;-73
2023/12/05 03:06:55;;;;;;;4.00;3.60;;;;;;;;;;5056593;28;40539;-73
2023/12/05 03:09:23;;;;;;;4.18;3.78;;;;;;;;;;5054983;28;42041;-73
2023/12/05 03:11:51;;;;;;;4.97;4.47;;;;;;;;;;5046140;28;42432;-73
2023/12/05 03:14:19;;;;;;;4.25;3.85;;;;;;;;;;5043491;28;40340;-73
2023/12/05 03:16:49;;;;;;;4.10;3.70;;;;;;;;;;5056207;28;41039;-73
2023/12/05 03:19:17;;;;;;;5.15;4.60;;;;;;;;;;5048622;28;39724;-73
2023/12/05 03:21:47;;;;;;;2.63;2.40;;;;;;;;;;5062367;28;42279;-73
2023/12/05 03:24:15;;;;;;;3.20;2.90;;;;;;;;;;5052478;28;43258;-73
2023/12/05 03:26:43;;;;;;;3.50;3.20;;;;;;;;;;5060483;28;40325;-73
2023/12/05 03:29:11;;;;;;;3.13;2.38;;;;;;;;;;5047898;28;42545;-73
2023/12/05 03:31:39;;;;;;;3.53;3.22;;;;;;;;;;5054859;28;42059;-73
2023/12/05 03:34:07;;;;;;;3.00;2.58;;;;;;;;;;5052887;28;39805;-73
2023/12/05 03:36:36;;;;;;;3.70;3.40;;;;;;;;;;5060000;28;41459;-73
2023/12/05 03:39:05;;;;;;;2.70;2.50;;;;;;;;;;5052645;28;40935;-73
2023/12/05 03:41:33;;;;;;;3.53;3.05;;;;;;;;;;5057643;28;42742;-73
2023/12/05 03:44:01;;;;;;;2.83;2.53;;;;;;;;;;5054931;28;41814;-72
2023/12/05 03:46:29;;;;;;;3.97;2.90;;;;;;;;;;5052669;28;41073;-74
2023/12/05 03:48:57;;;;;;;3.50;3.20;;;;;;;;;;5047674;28;41334;-73
2023/12/05 03:51:25;;;;;;;3.63;3.30;;;;;;;;;;5058322;28;41939;-74
2023/12/05 03:53:53;;;;;;;3.20;2.90;;;;;;;;;;5051138;28;39939;-72
2023/12/05 03:56:23;;;;;;;3.50;3.20;;;;;;;;;;5052710;28;42585;-73
2023/12/05 03:58:51;;;;;;;3.00;2.70;;;;;;;;;;5048922;28;41809;-73
2023/12/05 04:01:19;;;;;;;2.60;2.33;;;;;;;;;;5040354;28;38638;-73
2023/12/05 04:03:47;;;;;;;2.80;2.40;;;;;;;;;;5049053;28;42030;-73
2023/12/05 04:06:21;;;;;;;3.85;3.47;;;;;;;;;;5051684;28;39613;-73
2023/12/05 04:08:50;;;;;;;3.70;3.38;;;;;;;;;;5053599;28;41746;-74
2023/12/05 04:11:18;;;;;;;3.38;3.05;;;;;;;;;;5051565;28;41520;-74
2023/12/05 04:13:47;;;;;;;3.65;3.05;;;;;;;;;;5053735;28;40093;-73
2023/12/05 04:16:15;;;;;;;3.00;2.75;;;;;;;;;;5055149;28;41744;-73
2023/12/05 04:18:43;;;;;;;4.03;2.97;;;;;;;;;;5057150;28;41571;-73
2023/12/05 04:21:11;;;;;;;4.03;3.63;;;;;;;;;;5058242;28;40504;-73
2023/12/05 04:23:39;;;;;;;2.80;2.50;;;;;;;;;;5060205;28;41881;-73
2023/12/05 04:26:07;;;;;;;3.42;2.20;;;;;;;;;;5056272;28;40331;-73
2023/12/05 04:28:35;;;;;;;3.80;3.42;;;;;;;;;;5050261;28;42259;-73
2023/12/05 04:31:05;;;;;;;3.15;2.85;;;;;;;;;;5057981;28;41976;-73
2023/12/05 04:33:33;;;;;;;3.10;2.85;;;;;;;;;;5052210;28;39208;-73
2023/12/05 04:36:01;;;;;;;4.15;2.80;;;;;;;;;;5059857;28;42255;-73
2023/12/05 04:38:29;;;;;;;2.25;2.05;;;;;;;;;;5053613;28;41862;-73
2023/12/05 04:40:57;;;;;;;3.33;2.88;;;;;;;;;;5061152;28;40354;-72
2023/12/05 04:43:25;;;;;;;3.20;2.58;;;;;;;;;;5054003;28;40895;-73
2023/12/05 04:45:53;;;;;;;3.08;2.80;;;;;;;;;;5048974;28;31965;-73
2023/12/05 04:48:22;;;;;;;2.67;2.47;;;;;;;;;;5053692;28;42621;-73
2023/12/05 04:50:50;;;;;;;3.75;3.17;;;;;;;;;;5054769;28;43188;-73
2023/12/05 04:53:18;;;;;;;2.72;2.50;;;;;;;;;;5053122;28;41323;-73
2023/12/05 04:55:46;;;;;;;2.88;2.67;;;;;;;;;;5056739;28;41376;-73
2023/12/05 04:58:14;;;;;;;2.30;2.10;;;;;;;;;;5056999;28;41755;-73
2023/12/05 05:00:42;;;;;;;3.58;3.20;;;;;;;;;;5060305;28;41546;-72
2023/12/05 05:03:11;;;;;;;3.40;2.97;;;;;;;;;;5052905;28;41303;-73
2023/12/05 05:05:41;;;;;;;3.20;2.50;;;;;;;;;;5061324;28;42068;-73
2023/12/05 05:08:09;;;;;;;2.78;2.50;;;;;;;;;;5061869;28;41341;-73
2023/12/05 05:10:37;;;;;;;2.90;2.60;;;;;;;;;;5063586;28;41867;-73
2023/12/05 05:13:04;;;;;;;3.75;3.35;;;;;;;;;;5057065;28;39901;-73
2023/12/05 05:15:33;;;;;;;3.30;3.00;;;;;;;;;;5057341;28;41380;-73
2023/12/05 05:18:01;;;;;;;3.03;2.72;;;;;;;;;;5052654;28;42772;-73
2023/12/05 05:20:29;;;;;;;3.70;3.28;;;;;;;;;;5050070;28;40383;-73
2023/12/05 05:22:59;;;;;;;5.05;4.55;;;;;;;;;;5060495;28;41078;-73
2023/12/05 05:25:27;;;;;;;3.45;3.15;;;;;;;;;;5051495;28;42259;-73
2023/12/05 05:27:55;;;;;;;3.47;3.08;;;;;;;;;;5052376;28;40119;-72
2023/12/05 05:30:23;;;;;;;4.22;3.83;;;;;;;;;;5055496;28;42007;-73
2023/12/05 05:32:51;;;;;;;3.58;3.28;;;;;;;;;;5053695;28;40123;-73
2023/12/05 05:35:19;;;;;;;3.75;3.35;;;;;;;;;;5038554;28;41225;-73
2023/12/05 05:37:51;;;;;;;2.88;2.58;;;;;;;;;;5050576;28;41882;-73
2023/12/05 05:40:20;;;;;;;3.28;2.97;;;;;;;;;;5048973;28;40306;-72
2023/12/05 05:42:48;;;;;;;3.58;3.28;;;;;;;;;;5065346;28;41372;-73
2023/12/05 05:45:16;;;;;;;3.15;2.80;;;;;;;;;;5062031;28;42647;-73
2023/12/05 05:47:44;;;;;;;2.90;2.60;;;;;;;;;;5051730;28;40060;-73
2023/12/05 05:50:14;;;;;;;4.20;3.58;;;;;;;;;;5056969;28;42371;-73
2023/12/05 05:52:44;;;;;;;3.30;3.00;;;;;;;;;;5056212;28;40445;-73
2023/12/05 05:55:12;;;;;;;3.50;2.95;;;;;;;;;;5062346;28;41601;-73
2023/12/05 05:57:42;;;;;;;3.38;2.80;;;;;;;;;;5048210;28;41777;-73
2023/12/05 06:00:11;;;;;;;4.00;3.20;;;;;;;;;;5054537;28;39968;-73
2023/12/05 06:02:39;;;;;;;2.72;2.53;;;;;;;;;;5054054;28;41702;-72
2023/12/05 06:05:07;;;;;;;3.20;2.90;;;;;;;;;;5059889;28;40908;-73
2023/12/05 06:07:35;;;;;;;3.58;3.10;;;;;;;;;;5060917;28;40819;-73
2023/12/05 06:10:03;;;;;;;3.38;3.08;;;;;;;;;;5055244;28;41012;-73
2023/12/05 06:12:32;;;;;;;4.70;2.75;;;;;;;;;;5056523;28;43158;-73
2023/12/05 06:15:01;;;;;;;4.03;3.63;;;;;;;;;;5055352;28;42560;-73
2023/12/05 06:17:29;;;;;;;3.45;3.13;;;;;;;;;;5055853;28;42802;-73
2023/12/05 06:19:57;;;;;;;3.15;2.80;;;;;;;;;;5056129;28;41418;-73
2023/12/05 06:22:25;;;;;;;3.20;2.90;;;;;;;;;;5030883;28;40817;-73
2023/12/05 06:24:53;;;;;;;3.50;2.67;;;;;;;;;;5057974;28;41653;-73
2023/12/05 06:27:21;;;;;;;2.42;2.08;;;;;;;;;;5053111;28;40646;-73
2023/12/05 06:29:49;;;;;;;3.88;3.50;;;;;;;;;;5057128;28;42691;-73
2023/12/05 06:32:18;;;;;;;3.30;3.00;;;;;;;;;;5061937;28;41976;-73
2023/12/05 06:34:46;;;;;;;4.28;3.22;;;;;;;;;;5062482;28;40099;-73
2023/12/05 06:37:14;;;;;;;3.45;3.13;;;;;;;;;;5057445;28;41791;-73
2023/12/05 06:39:42;;;;;;;3.88;3.45;;;;;;;;;;5060820;28;41136;-73
2023/12/05 06:42:10;;;;;;;2.67;2.40;;;;;;;;;;5053403;28;41959;-73
2023/12/05 06:44:38;;;;;;;3.33;3.03;;;;;;;;;;5061698;28;41990;-73
2023/12/05 06:47:06;;;;;;;3.10;2.80;;;;;;;;;;5050413;28;40923;-73
2023/12/05 06:49:35;;;;;;;3.10;2.80;;;;;;;;;;5055522;28;41253;-72
2023/12/05 06:52:05;;;;;;;4.13;3.67;;;;;;;;;;5053941;28;42785;-73
2023/12/05 06:54:33;;;;;;;3.65;3.08;;;;;;;;;;5056606;28;40429;-73
2023/12/05 06:57:00;;;;;;;4.07;3.50;;;;;;;;;;5055273;28;42227;-73
2023/12/05 06:59:28;;;;;;;2.47;2.22;;;;;;;;;;5049307;28;39451;-73
2023/12/05 07:01:56;;;;;;;4.13;3.72;;;;;;;;;;5045799;28;41311;-73
2023/12/05 07:04:24;;;;;;;3.03;2.72;;;;;;;;;;5053188;28;43131;-73
2023/12/05 07:06:54;;;;;;;3.53;2.80;;;;;;;;;;5056918;28;40875;-73
2023/12/05 07:09:22;;;;;;;2.30;2.10;;;;;;;;;;5060677;28;42052;-73
2023/12/05 07:11:50;;;;;;;3.28;2.88;;;;;;;;;;5051235;28;42510;-72
2023/12/05 07:14:17;;;;;;;2.53;2.33;;;;;;;;;;5053377;28;40436;-73
2023/12/05 07:16:46;;;;;;;4.10;3.70;;;;;;;;;;5055270;28;41256;-73
2023/12/05 07:19:14;;;;;;;2.88;2.60;;;;;;;;;;5053726;28;40095;-73
2023/12/05 07:21:42;;;;;;;3.80;3.45;;;;;;;;;;5061532;28;41182;-73
2023/12/05 07:24:11;;;;;;;2.63;2.42;;;;;;;;;;5058689;28;41454;-73
2023/12/05 07:26:39;;;;;;;2.75;2.42;;;;;;;;;;5040270;28;38833;-73
2023/12/05 07:29:08;;;;;;;3.85;3.50;;;;;;;;;;5059663;28;41398;-73
2023/12/05 07:31:36;;;;;;;3.20;2.88;;;;;;;;;;5057507;28;41716;-73
2023/12/05 07:34:04;;;;;;;4.28;3.40;;;;;;;;;;5057625;28;40407;-73
2023/12/05 07:36:32;;;;;;;2.92;2.63;;;;;;;;;;5044404;28;40742;-73
2023/12/05 07:39:00;;;;;;;3.45;3.03;;;;;;;;;;5056970;28;42117;-73
2023/12/05 07:41:30;;;;;;;4.40;3.60;;;;;;;;;;5056606;28;41632;-73
2023/12/05 07:43:58;;;;;;;3.00;2.35;;;;;;;;;;5060608;28;43171;-73
2023/12/05 07:46:26;;;;;;;3.70;3.20;;;;;;;;;;5055593;28;39830;-73
2023/12/05 07:48:54;;;;;;;3.35;3.05;;;;;;;;;;5056484;28;41303;-73
2023/12/05 07:51:22;;;;;;;4.05;2.50;;;;;;;;;;5052960;28;42308;-73
2023/12/05 07:53:51;;;;;;;3.67;3.08;;;;;;;;;;5055851;28;41261;-73
2023/12/05 07:56:19;;;;;;;3.28;2.67;;;;;;;;;;5055845;28;41040;-73
2023/12/05 07:58:48;;;;;;;4.82;4.32;;;;;;;;;;5053799;28;41736;-73
2023/12/05 08:01:18;;;;;;;5.25;4.75;;;;;;;;;;5035349;28;39033;-73
2023/12/05 08:03:46;;;;;;;4.57;4.10;;;;;;;;;;5064890;28;41695;-73
2023/12/05 08:06:14;;;;;;;5.03;4.53;;;;;;;;;;5059733;28;40134;-73
2023/12/05 08:08:42;;;;;;;3.58;3.28;;;;;;;;;;5058954;28;41317;-73
2023/12/05 08:11:11;;;;;;;4.18;3.60;;;;;;;;;;5058256;28;41972;-73
2023/12/05 08:13:39;;;;;;;3.97;3.58;;;;;;;;;;5051910;28;41032;-73
2023/12/05 08:16:09;;;;;;;5.93;4.47;;;;;;;;;;5062646;28;41357;-73
2023/12/05 08:18:37;;;;;;;6.05;5.05;;;;;;;;;;5053626;28;42259;-73
2023/12/05 08:21:05;;;;;;;3.78;3.38;;;;;;;;;;5061581;28;39843;-73
2023/12/05 08:23:33;;;;;;;5.22;4.72;;;;;;;;;;5051258;28;39855;-73
2023/12/05 08:26:01;;;;;;;8.00;4.60;;;;;;;;;;5065245;28;40199;-73
2023/12/05 08:28:29;;;;;;;7.50;6.03;;;;;;;;;;5052817;28;41973;-73
2023/12/05 08:30:57;;;;;;;4.68;3.95;;;;;;;;;;5055318;28;42757;-73
2023/12/05 08:33:26;;;;;;;5.07;4.57;;;;;;;;;;5064323;28;40092;-75
2023/12/05 08:35:55;;;;;;;7.63;4.57;;;;;;;;;;5062959;28;41325;-73
2023/12/05 08:38:23;;;;;;;7.82;5.50;;;;;;;;;;5063767;28;42433;-73
2023/12/05 08:40:51;;;;;;;4.50;4.10;;;;;;;;;;5062964;28;39681;-73
2023/12/05 08:43:19;;;;;;;5.40;4.88;;;;;;;;;;5050727;28;41663;-72
2023/12/05 08:45:48;;;;;;;7.15;4.95;;;;;;;;;;5054723;28;41688;-74
2023/12/05 08:48:16;;;;;;;5.13;3.78;;;;;;;;;;5057943;28;41749;-74
2023/12/05 08:50:46;;;;;;;6.47;4.65;;;;;;;;;;5062648;28;41596;-73
2023/12/05 08:53:14;;;;;;;6.53;5.68;;;;;;;;;;5062847;28;39862;-74
2023/12/05 08:55:44;;;;;;;6.82;5.28;;;;;;;;;;5061046;28;42324;-73
2023/12/05 08:58:12;;;;;;;7.65;5.82;;;;;;;;;;5059704;28;42056;-76
2023/12/05 09:00:40;;;;;;;9.73;5.95;;;;;;;;;;5056028;28;40106;-72
2023/12/05 09:03:08;;;;;;;5.28;4.32;;;;;;;;;;5055106;28;41392;-74
2023/12/05 09:05:36;;;;;;;3.92;3.40;;;;;;;;;;5060231;28;41791;-71
2023/12/05 09:08:06;;;;;;;5.32;3.58;;;;;;;;;;5045233;28;39814;-72
2023/12/05 09:10:34;;;;;;;4.35;3.95;;;;;;;;;;5064591;28;42511;-72
2023/12/05 09:13:02;;;;;;;5.32;4.82;;;;;;;;;;5054849;28;40608;-73
2023/12/05 09:15:29;;;;;;;5.68;5.07;;;;;;;;;;5055071;28;41917;-72
2023/12/05 09:17:57;;;;;;;6.72;5.00;;;;;;;;;;5060768;28;41915;-72
2023/12/05 09:20:25;;;;;;;5.15;4.28;;;;;;;;;;5040332;28;40194;-71
2023/12/05 09:22:53;;;;;;;8.88;5.07;;;;;;;;;;5064262;28;41310;-72
2023/12/05 09:25:30;;;;;;;8.00;5.88;;;;;;;;;;5056653;28;41676;-72
2023/12/05 09:27:57;;;;;;;4.60;3.97;;;;;;;;;;5057450;28;41039;-73
2023/12/05 09:30:26;;;;;;;5.75;4.53;;;;;;;;;;5063603;28;42422;-72
2023/12/05 09:32:54;;;;;;;6.10;5.40;;;;;;;;;;5062824;28;42245;-72
2023/12/05 09:35:24;;;;;;;6.97;5.07;;;;;;;;;;5060061;28;41610;-72
2023/12/05 09:37:52;;;;;;;6.45;4.45;;;;;;;;;;5059368;28;42151;-72
2023/12/05 09:40:20;;;;;;;5.00;4.50;;;;;;;;;;5050597;28;40830;-74
2023/12/05 09:42:49;;;;;;;4.75;4.07;;;;;;;;;;5056551;28;41417;-72
2023/12/05 09:45:17;;;;;;;4.50;4.03;;;;;;;;;;5053525;28;43068;-72
2023/12/05 09:47:46;;;;;;;6.65;5.32;;;;;;;;;;5055037;28;38992;-71
2023/12/05 09:50:14;;;;;;;6.63;4.13;;;;;;;;;;5058209;28;42069;-73
2023/12/05 09:52:42;;;;;;;7.85;5.55;;;;;;;;;;5058976;28;41305;-72
2023/12/05 09:55:11;;;;;;;8.43;4.82;;;;;;;;;;5062419;28;41508;-74
2023/12/05 09:57:40;;;;;;;7.88;4.75;;;;;;;;;;5064744;28;43114;-73
2023/12/05 10:00:10;;;;;;;5.38;4.50;;;;;;;;;;5061491;28;41898;-73
2023/12/05 10:02:40;;;;;;;5.30;4.80;;;;;;;;;;5065995;28;41435;-73
2023/12/05 10:05:10;;;;;;;7.07;5.00;;;;;;;;;;5060059;28;42356;-73
2023/12/05 10:07:38;;;;;;;5.97;3.10;;;;;;;;;;5054041;28;39699;-73
2023/12/05 10:10:07;;;;;;;10.52;5.28;;;;;;;;;;5044164;28;42463;-73
2023/12/05 10:12:36;;;;;;;4.70;4.30;;;;;;;;;;5060757;28;42289;-73
2023/12/05 10:15:04;;;;;;;7.28;3.72;;;;;;;;;;5054539;28;42961;-72
2023/12/05 10:17:35;;;;;;;6.97;5.68;;;;;;;;;;5062826;28;41029;-73
2023/12/05 10:20:04;;;;;;;8.30;4.18;;;;;;;;;;5056926;28;39932;-72
2023/12/05 10:22:32;;;;;;;6.20;4.53;;;;;;;;;;5036180;28;40913;-73
2023/12/05 10:25:00;;;;;;;6.43;4.88;;;;;;;;;;5039608;28;41492;-72
2023/12/05 10:27:28;;;;;;;5.40;4.88;;;;;;;;;;5055029;28;41040;-73
2023/12/05 10:29:56;;;;;;;4.10;3.70;;;;;;;;;;5060550;28;42032;-73
2023/12/05 10:32:27;;;;;;;5.45;4.60;;;;;;;;;;5058492;28;42637;-73
2023/12/05 10:34:57;;;;;;;5.53;3.90;;;;;;;;;;5062423;28;41531;-74
2023/12/05 10:37:26;;;;;;;7.47;3.97;;;;;;;;;;5062930;28;42161;-73
2023/12/05 10:39:54;;;;;;;6.13;4.15;;;;;;;;;;5060258;28;41398;-73
2023/12/05 10:42:26;;;;;;;4.60;3.38;;;;;;;;;;5058864;28;41041;-72
2023/12/05 10:44:54;;;;;;;5.18;3.85;;;;;;;;;;5054085;28;43032;-72
2023/12/05 10:47:23;;;;;;;5.25;4.13;;;;;;;;;;5054962;28;41896;-73
2023/12/05 10:49:51;;;;;;;4.00;3.60;;;;;;;;;;5054085;28;41206;-73
2023/12/05 10:52:21;;;;;;;5.57;4.32;;;;;;;;;;5060253;28;40331;-74
2023/12/05 10:54:54;;;;;;;5.60;4.43;;;;;;;;;;5060143;28;40991;-72
2023/12/05 10:57:30;;;;;;;5.90;3.63;;;;;;;;;;5052764;28;20322;-72
2023/12/05 10:59:58;;;;;;;5.13;4.47;;;;;;;;;;5060972;28;39261;-72
2023/12/05 11:02:26;;;;;;;5.53;4.90;;;;;;;;;;5058611;28;41380;-74
2023/12/05 11:04:54;;;;;;;5.97;4.10;;;;;;;;;;5059986;28;41489;-73
2023/12/05 11:07:24;;;;;;;4.45;3.67;;;;;;;;;;5053935;28;40253;-79
2023/12/05 11:09:52;;;;;;;5.75;5.00;;;;;;;;;;5034003;28;41125;-73
2023/12/05 11:12:20;;;;;;;6.30;4.40;;;;;;;;;;5063700;28;43611;-73
2023/12/05 11:14:48;;;;;;;4.50;3.20;;;;;;;;;;5059002;28;39035;-72
2023/12/05 11:17:18;;;;;;;4.10;3.65;;;;;;;;;;5063831;28;42312;-70
2023/12/05 11:19:49;;;;;;;8.00;4.22;;;;;;;;;;5060490;28;39388;-73
2023/12/05 11:22:20;;;;;;;4.40;2.80;;;;;;;;;;5059804;28;41120;-71
2023/12/05 11:24:56;;;;;;;4.50;3.92;;;;;;;;;;5059452;28;44444;-72
2023/12/05 11:27:30;;;;;;;6.75;5.38;;;;;;;;;;5058930;28;41031;-71
2023/12/05 11:30:03;;;;;;;4.72;4.18;;;;;;;;;;5053380;28;41806;-71
2023/12/05 11:32:34;;;;;;;5.75;5.05;;;;;;;;;;5056651;28;42735;-71
2023/12/05 11:35:10;;;;;;;4.22;3.58;;;;;;;;;;5056509;28;40239;-72
2023/12/05 11:37:49;;;;;;;6.22;5.40;;;;;;;;;;5053464;28;42189;-71
2023/12/05 11:40:18;;;;;;;5.15;4.50;;;;;;;;;;5051976;28;41898;-72
2023/12/05 11:43:10;;;;;;;5.07;4.57;;;;;;;;;;5059698;28;42348;-73
2023/12/05 11:45:38;;;;;;;7.88;5.90;;;;;;;;;;5041423;28;41573;-71
2023/12/05 11:48:07;;;;;;;6.32;5.70;;;;;;;;;;5066999;28;40042;-70
2023/12/05 11:50:42;;;;;;;6.68;5.53;;;;;;;;;;5065194;28;40961;-69
2023/12/05 11:53:10;;;;;;;6.93;5.72;;;;;;;;;;5066449;28;42128;-72
2023/12/05 11:55:42;;;;;;;9.57;6.32;;;;;;;;;;5046238;28;39722;-72
2023/12/05 11:58:25;;;;;;;8.20;6.47;;;;;;;;;;5060150;28;41321;-71
2023/12/05 12:01:00;;;;;;;6.32;5.50;;;;;;;;;;5057077;28;41773;-72
2023/12/05 12:03:29;;;;;;;7.93;6.00;;;;;;;;;;5066119;28;42341;-71
2023/12/05 12:06:01;;;;;;;9.52;7.80;;;;;;;;;;5041113;28;41431;-71
2023/12/05 12:08:29;;;;;;;5.20;4.28;;;;;;;;;;5063860;28;40729;-72
2023/12/05 12:10:59;;;;;;;7.30;6.55;;;;;;;;;;5063072;28;41721;-72
2023/12/05 12:13:28;;;;;;;9.48;7.65;;;;;;;;;;5058100;28;42122;-72
2023/12/05 12:15:57;;;;;;;6.40;5.65;;;;;;;;;;5060421;28;39079;-73
2023/12/05 12:18:25;;;;;;;7.32;6.38;;;;;;;;;;5055081;28;40275;-73
2023/12/05 12:21:03;;;;;;;8.98;6.20;;;;;;;;;;5061904;28;41666;-73
2023/12/05 12:23:30;;;;;;;8.85;6.55;;;;;;;;;;5057993;28;40377;-73
2023/12/05 12:26:00;;;;;;;8.20;6.18;;;;;;;;;;5061836;28;42607;-72
2023/12/05 12:28:29;;;;;;;7.93;6.00;;;;;;;;;;5063595;28;41820;-72
2023/12/05 12:30:57;;;;;;;5.57;4.82;;;;;;;;;;5044722;28;39752;-72
2023/12/05 12:33:28;;;;;;;7.43;6.00;;;;;;;;;;5065725;28;43573;-72
2023/12/05 12:35:57;;;;;;;4.93;4.40;;;;;;;;;;5052140;28;40518;-72
2023/12/05 12:38:25;;;;;;;7.93;6.55;;;;;;;;;;5057555;28;41982;-73
2023/12/05 12:40:53;;;;;;;8.02;6.63;;;;;;;;;;5060006;28;41788;-73
2023/12/05 12:43:23;;;;;;;7.22;6.25;;;;;;;;;;5058003;28;40592;-72
2023/12/05 12:45:50;;;;;;;7.65;6.72;;;;;;;;;;5062092;28;41726;-73
2023/12/05 12:48:18;;;;;;;11.23;6.05;;;;;;;;;;5060463;28;42225;-73
2023/12/05 12:50:47;;;;;;;6.72;5.70;;;;;;;;;;5058939;28;41193;-72
2023/12/05 12:53:15;;;;;;;7.80;6.45;;;;;;;;;;5041462;28;41790;-73
2023/12/05 12:55:42;;;;;;;7.85;7.05;;;;;;;;;;5061043;28;41564;-73
2023/12/05 12:58:10;;;;;;;4.28;3.85;;;;;;;;;;5053547;28;41636;-72
2023/12/05 13:00:40;;;;;;;5.40;4.40;;;;;;;;;;5058727;28;42307;-72
2023/12/05 13:03:09;;;;;;;7.03;5.30;;;;;;;;;;5057750;28;39740;-69
2023/12/05 13:05:37;;;;;;;9.65;6.15;;;;;;;;;;5057725;28;41422;-69
2023/12/05 13:08:07;;;;;;;9.13;7.32;;;;;;;;;;5057784;28;41966;-70
2023/12/05 13:10:36;;;;;;;8.90;7.32;;;;;;;;;;5056308;28;41026;-71
2023/12/05 13:13:04;;;;;;;6.28;5.18;;;;;;;;;;5058975;28;42480;-73
2023/12/05 13:15:32;;;;;;;8.55;6.32;;;;;;;;;;5053625;28;40401;-71
2023/12/05 13:18:02;;;;;;;7.13;5.78;;;;;;;;;;5055339;28;41632;-74
2023/12/05 13:20:31;;;;;;;8.50;6.43;;;;;;;;;;5052754;28;42011;-73
2023/12/05 13:23:00;;;;;;;9.10;7.25;;;;;;;;;;5059353;28;39904;-74
2023/12/05 13:25:28;;;;;;;10.43;6.45;;;;;;;;;;5052409;28;41360;-73
2023/12/05 13:28:10;;;;;;;13.23;7.45;;;;;;;;;;5056688;28;41684;-72
2023/12/05 13:30:37;;;;;;;10.05;6.85;;;;;;;;;;5057765;28;40105;-72
2023/12/05 13:33:07;;;;;;;7.80;7.00;;;;;;;;;;5063474;28;41593;-71
2023/12/05 13:35:40;;;;;;;10.98;9.77;;;;;;;;;;5058737;28;39656;-72
2023/12/05 13:38:08;;;;;;;16.13;8.13;;;;;;;;;;5063195;28;41802;-72
2023/12/05 13:40:37;;;;;;;10.30;8.57;;;;;;;;;;5054659;28;43192;-72
2023/12/05 13:43:05;;;;;;;9.55;7.32;;;;;;;;;;5059170;28;41475;-73
2023/12/05 13:45:33;;;;;;;17.42;8.55;;;;;;;;;;5057244;28;42238;-73
2023/12/05 13:48:01;;;;;;;12.00;9.10;;;;;;;;;;5061498;28;42857;-70
2023/12/05 13:50:31;;;;;;;13.00;9.30;;;;;;;;;;5053916;28;39877;-73
2023/12/05 13:52:59;;;;;;;12.40;8.25;;;;;;;;;;5063136;28;42065;-73
2023/12/05 13:55:27;;;;;;;10.75;6.88;;;;;;;;;;5062645;28;40994;-73
2023/12/05 13:57:55;;;;;;;12.07;8.20;;;;;;;;;;5061064;28;41383;-72
2023/12/05 14:00:25;;;;;;;12.20;7.82;;;;;;;;;;5060276;28;41926;-71
2023/12/05 14:02:53;;;;;;;9.60;6.78;;;;;;;;;;5060670;28;40389;-73
2023/12/05 14:05:21;;;;;;;9.18;6.80;;;;;;;;;;5061018;28;41834;-75
2023/12/05 14:07:51;;;;;;;11.45;8.48;;;;;;;;;;5052322;28;41701;-75
2023/12/05 14:10:19;;;;;;;11.18;7.10;;;;;;;;;;5062534;28;39933;-75
2023/12/05 14:12:47;;;;;;;8.95;6.40;;;;;;;;;;5062485;28;41322;-76
2023/12/05 14:15:15;;;;;;;8.98;6.53;;;;;;;;;;5055880;28;42277;-76
2023/12/05 14:17:43;;;;;;;10.45;7.47;;;;;;;;;;5054454;28;43283;-76
2023/12/05 14:20:11;;;;;;;11.77;6.75;;;;;;;;;;5060044;28;42072;-75
2023/12/05 14:22:39;;;;;;;10.40;7.43;;;;;;;;;;5061164;28;40971;-76
2023/12/05 14:25:09;;;;;;;8.82;7.35;;;;;;;;;;5052097;28;41084;-77
2023/12/05 14:27:37;;;;;;;11.02;8.32;;;;;;;;;;5049596;28;41987;-76
2023/12/05 14:30:06;;;;;;;10.60;7.55;;;;;;;;;;5061845;28;41437;-77
2023/12/05 14:32:34;;;;;;;9.88;7.70;;;;;;;;;;5048929;28;42656;-73
2023/12/05 14:35:04;;;;;;;9.70;7.28;;;;;;;;;;5056930;28;41928;-75
2023/12/05 14:37:32;;;;;;;10.32;7.63;;;;;;;;;;5053008;28;39976;-76
2023/12/05 14:40:00;;;;;;;8.50;6.35;;;;;;;;;;5060644;28;42438;-72
2023/12/05 14:42:29;;;;;;;9.00;7.47;;;;;;;;;;5061539;28;40108;-73
2023/12/05 14:44:57;;;;;;;7.75;6.43;;;;;;;;;;5052888;28;42220;-72
2023/12/05 14:47:25;;;;;;;8.68;6.90;;;;;;;;;;5062088;28;42842;-73
2023/12/05 14:49:54;;;;;;;7.95;6.25;;;;;;;;;;5056655;28;40264;-72
2023/12/05 14:52:22;;;;;;;10.73;7.30;;;;;;;;;;5063350;28;41540;-72